Time;durP1;ratioP1;P1;durP2;ratioP2;P2;SDS_P1;SDS_P2;PMS_P1;PMS_P2;Temp;Humidity;BMP_temperature;BMP_pressure;BME280_temperature;BME280_humidity;BME280_pressure;Samples;Min_cycle;Max_cycle;Signal;HPM_P1;HPM_P2
2021/05/14 00:00:37;;;;;;;8.70;3.92;;;;;;;13.61;95.17;100172.44;5004113;28;20092;-84
2021/05/14 00:03:03;;;;;;;6.80;3.92;;;;;;;13.57;95.18;100171.00;5009577;28;20443;-84
2021/05/14 00:05:28;;;;;;;5.63;4.05;;;;;;;13.55;95.34;100172.97;5021056;28;20235;-83
2021/05/14 00:07:54;;;;;;;8.40;4.50;;;;;;;13.54;95.17;100173.09;5023826;28;20304;-83
2021/05/14 00:10:21;;;;;;;10.43;4.10;;;;;;;13.51;95.33;100168.84;5025032;28;20394;-84
2021/05/14 00:12:49;;;;;;;7.40;4.25;;;;;;;13.47;95.70;100175.44;5011150;28;20034;-83
2021/05/14 00:15:15;;;;;;;6.05;3.75;;;;;;;13.44;95.64;100180.25;5015029;28;20429;-84
2021/05/14 00:17:41;;;;;;;5.47;4.13;;;;;;;13.41;95.79;100184.06;5033454;28;20077;-84
2021/05/14 00:20:07;;;;;;;5.35;3.75;;;;;;;13.34;96.18;100174.78;5025447;28;20494;-84
2021/05/14 00:22:32;;;;;;;6.85;4.32;;;;;;;13.29;96.26;100179.69;5035304;28;20574;-83
2021/05/14 00:24:58;;;;;;;7.57;4.05;;;;;;;13.26;96.51;100171.88;5025893;28;20128;-83
2021/05/14 00:27:23;;;;;;;7.78;4.68;;;;;;;13.25;96.63;100165.63;5017904;28;20090;-83
2021/05/14 00:29:49;;;;;;;6.80;4.78;;;;;;;13.21;96.69;100174.09;5008951;28;20080;-83
2021/05/14 00:32:14;;;;;;;7.72;4.47;;;;;;;13.20;97.06;100169.72;5007031;28;20026;-84
2021/05/14 00:34:40;;;;;;;6.80;4.75;;;;;;;13.17;96.75;100176.19;5027609;28;20215;-83
2021/05/14 00:37:05;;;;;;;7.85;4.22;;;;;;;13.17;96.69;100178.03;5030216;28;20030;-84
2021/05/14 00:39:31;;;;;;;6.90;4.50;;;;;;;13.13;96.99;100171.19;5014139;28;20030;-84
2021/05/14 00:41:57;;;;;;;6.35;4.30;;;;;;;13.11;97.21;100170.44;5010761;28;20203;-84
2021/05/14 00:44:31;;;;;;;9.30;5.13;;;;;;;13.10;97.03;100171.41;5025071;28;20033;-84
2021/05/14 00:47:02;;;;;;;6.63;3.78;;;;;;;13.06;97.41;100175.34;5034436;28;20037;-83
2021/05/14 00:49:28;;;;;;;6.50;4.40;;;;;;;13.05;97.62;100179.03;5026642;28;20029;-82
2021/05/14 00:51:55;;;;;;;6.20;4.15;;;;;;;13.02;97.60;100174.75;5010662;28;20480;-84
2021/05/14 00:54:21;;;;;;;8.93;4.65;;;;;;;13.01;97.49;100172.19;5026909;28;20036;-84
2021/05/14 00:56:47;;;;;;;10.00;4.57;;;;;;;12.98;97.66;100163.38;5025132;28;20125;-84
2021/05/14 00:59:13;;;;;;;8.15;4.32;;;;;;;12.94;97.68;100171.84;5018441;28;20040;-83
2021/05/14 01:01:38;;;;;;;6.65;4.22;;;;;;;12.90;97.96;100171.22;5020967;28;20021;-83
2021/05/14 01:04:04;;;;;;;4.75;3.83;;;;;;;12.86;98.11;100169.78;5033037;28;20094;-84
2021/05/14 01:06:30;;;;;;;6.20;4.55;;;;;;;12.84;97.85;100169.03;5030966;28;20448;-84
2021/05/14 01:09:01;;;;;;;7.95;4.85;;;;;;;12.78;97.98;100166.84;5004461;28;20080;-83
2021/05/14 01:11:27;;;;;;;8.15;4.70;;;;;;;12.70;98.08;100169.34;5013216;28;20132;-83
2021/05/14 01:13:54;;;;;;;8.13;4.85;;;;;;;12.64;98.78;100169.84;5010016;28;20116;-84
2021/05/14 01:16:19;;;;;;;8.10;5.35;;;;;;;12.61;98.91;100170.06;5024081;28;20028;-83
2021/05/14 01:18:46;;;;;;;9.65;5.75;;;;;;;12.54;98.75;100158.09;5016285;28;20037;-84
2021/05/14 01:21:11;;;;;;;8.43;4.97;;;;;;;12.48;99.06;100166.66;5019934;28;20041;-83
2021/05/14 01:23:37;;;;;;;7.72;5.45;;;;;;;12.43;99.67;100160.78;5010847;28;20029;-84
2021/05/14 01:26:13;;;;;;;10.48;5.30;;;;;;;12.40;99.63;100156.53;5027166;28;20565;-84
2021/05/14 01:28:39;;;;;;;8.90;5.85;;;;;;;12.36;99.78;100159.56;5024664;28;20405;-84
2021/05/14 01:31:05;;;;;;;6.70;4.65;;;;;;;12.34;99.87;100166.94;5025407;28;20490;-84
2021/05/14 01:33:31;;;;;;;8.10;5.00;;;;;;;12.32;99.79;100163.50;5020824;28;20057;-84
2021/05/14 01:35:56;;;;;;;12.48;5.95;;;;;;;12.29;99.74;100171.81;5021930;28;20033;-82
2021/05/14 01:38:22;;;;;;;8.60;5.60;;;;;;;12.24;99.85;100164.09;5025296;28;20120;-83
2021/05/14 01:40:47;;;;;;;8.32;5.90;;;;;;;12.21;100.00;100161.69;5023814;28;20021;-82
2021/05/14 01:43:12;;;;;;;8.90;5.47;;;;;;;12.18;99.94;100152.97;5006206;28;20441;-83
2021/05/14 01:45:38;;;;;;;8.98;5.30;;;;;;;12.13;100.00;100170.34;5022516;28;20531;-83
2021/05/14 01:48:04;;;;;;;8.70;6.13;;;;;;;12.10;100.00;100157.13;5002575;28;20637;-84
2021/05/14 01:50:29;;;;;;;9.95;6.68;;;;;;;12.03;100.00;100157.75;5022284;28;20055;-82
2021/05/14 01:52:55;;;;;;;9.00;6.32;;;;;;;11.98;100.00;100155.41;5034439;28;20033;-83
2021/05/14 01:55:20;;;;;;;8.57;6.05;;;;;;;11.93;100.00;100157.63;5024402;28;20037;-83
2021/05/14 01:57:46;;;;;;;12.18;6.70;;;;;;;11.92;100.00;100155.91;5020527;28;20526;-83
2021/05/14 02:00:12;;;;;;;10.85;6.55;;;;;;;11.89;100.00;100158.84;5004633;28;20493;-84
2021/05/14 02:02:37;;;;;;;7.82;5.72;;;;;;;11.85;100.00;100153.84;5021343;28;20029;-84
2021/05/14 02:05:03;;;;;;;9.77;6.20;;;;;;;11.81;100.00;100155.91;5005524;28;20456;-83
2021/05/14 02:07:28;;;;;;;7.55;5.80;;;;;;;11.78;100.00;100156.16;5023399;28;20543;-82
2021/05/14 02:09:54;;;;;;;11.38;7.25;;;;;;;11.76;100.00;100158.09;5026322;28;20452;-83
2021/05/14 02:12:20;;;;;;;9.57;5.88;;;;;;;11.72;100.00;100153.91;5019611;28;20044;-84
2021/05/14 02:14:46;;;;;;;7.63;5.95;;;;;;;11.71;100.00;100157.56;5024038;28;20517;-83
2021/05/14 02:17:11;;;;;;;8.85;6.20;;;;;;;11.69;100.00;100154.13;5023219;28;20060;-84
2021/05/14 02:19:36;;;;;;;10.23;6.38;;;;;;;11.67;100.00;100158.75;5025339;28;20041;-84
2021/05/14 02:22:06;;;;;;;8.23;6.43;;;;;;;11.66;100.00;100154.38;5029744;28;20065;-83
2021/05/14 02:24:32;;;;;;;10.40;5.88;;;;;;;11.67;100.00;100153.38;5025097;28;20055;-82
2021/05/14 02:26:57;;;;;;;9.38;6.32;;;;;;;11.66;100.00;100154.38;5022130;28;20260;-84
2021/05/14 02:29:23;;;;;;;12.38;6.00;;;;;;;11.65;100.00;100150.84;5025634;28;20029;-84
2021/05/14 02:31:48;;;;;;;8.43;5.85;;;;;;;11.63;100.00;100147.41;5019060;28;20426;-83
2021/05/14 02:34:14;;;;;;;10.98;6.07;;;;;;;11.61;100.00;100145.78;5022040;28;20049;-84
2021/05/14 02:36:40;;;;;;;9.43;6.28;;;;;;;11.59;100.00;100143.25;5020199;28;20033;-84
2021/05/14 02:39:07;;;;;;;8.23;6.43;;;;;;;11.58;100.00;100137.97;5005205;28;20494;-83
2021/05/14 02:41:33;;;;;;;9.07;6.18;;;;;;;11.54;100.00;100150.78;5019054;28;20036;-83
2021/05/14 02:43:59;;;;;;;10.05;6.65;;;;;;;11.53;100.00;100145.56;5004877;28;20357;-84
2021/05/14 02:46:25;;;;;;;8.13;6.05;;;;;;;11.52;100.00;100158.13;5009365;28;20471;-83
2021/05/14 02:48:50;;;;;;;16.90;6.65;;;;;;;11.50;100.00;100146.63;5025631;28;20033;-83
2021/05/14 02:51:16;;;;;;;12.00;7.43;;;;;;;11.49;100.00;100146.75;5007219;28;20037;-84
2021/05/14 02:53:41;;;;;;;8.45;6.20;;;;;;;11.47;100.00;100146.03;5015214;28;20041;-81
2021/05/14 02:56:07;;;;;;;12.02;6.35;;;;;;;11.44;100.00;100154.31;5023885;28;20033;-82
2021/05/14 02:58:32;;;;;;;10.82;6.78;;;;;;;11.40;100.00;100153.69;5027807;28;22298;-82
2021/05/14 03:00:58;;;;;;;9.75;6.93;;;;;;;11.36;100.00;100147.69;5012650;28;20037;-83
2021/05/14 03:03:23;;;;;;;10.20;8.02;;;;;;;11.32;100.00;100146.22;5015482;28;20516;-83
2021/05/14 03:05:49;;;;;;;9.75;7.10;;;;;;;11.28;100.00;100151.97;5004657;28;20033;-83
2021/05/14 03:08:15;;;;;;;8.77;6.32;;;;;;;11.26;100.00;100149.38;5030860;28;20116;-83
2021/05/14 03:10:40;;;;;;;10.90;7.57;;;;;;;11.26;100.00;100145.84;5009046;28;20119;-82
2021/05/14 03:13:06;;;;;;;15.02;6.70;;;;;;;11.25;100.00;100149.47;5023780;28;20061;-83
2021/05/14 03:15:31;;;;;;;11.00;7.40;;;;;;;11.23;100.00;100151.47;5016639;28;20060;-84
2021/05/14 03:17:57;;;;;;;9.30;7.65;;;;;;;11.20;100.00;100147.16;5002548;28;20425;-83
2021/05/14 03:20:22;;;;;;;8.18;6.13;;;;;;;11.18;100.00;100151.78;5019420;28;20041;-83
2021/05/14 03:22:47;;;;;;;9.80;7.25;;;;;;;11.14;100.00;100149.44;5016193;28;20498;-82
2021/05/14 03:25:13;;;;;;;9.93;6.72;;;;;;;11.10;100.00;100146.16;5010163;28;20465;-81
2021/05/14 03:27:39;;;;;;;9.20;6.45;;;;;;;11.08;100.00;100147.22;5002164;28;20527;-83
2021/05/14 03:30:07;;;;;;;13.05;7.38;;;;;;;11.02;100.00;100148.53;5017401;28;20041;-83
2021/05/14 03:32:32;;;;;;;11.60;7.35;;;;;;;10.95;100.00;100147.28;5029809;28;20112;-83
2021/05/14 03:34:58;;;;;;;13.57;8.35;;;;;;;10.88;100.00;100151.41;5008922;28;20518;-83
2021/05/14 03:37:23;;;;;;;12.48;8.23;;;;;;;10.84;100.00;100149.94;5019258;28;20034;-83
2021/05/14 03:39:53;;;;;;;13.55;8.30;;;;;;;10.79;100.00;100147.59;5010684;28;20043;-83
2021/05/14 03:42:23;;;;;;;11.40;7.90;;;;;;;10.75;100.00;100146.09;5026082;28;20030;-82
2021/05/14 03:44:49;;;;;;;10.48;7.28;;;;;;;10.74;100.00;100143.53;5029336;28;20479;-83
2021/05/14 03:47:14;;;;;;;10.43;7.20;;;;;;;10.73;100.00;100142.69;5004612;28;20038;-82
2021/05/14 03:49:40;;;;;;;14.35;8.00;;;;;;;10.74;100.00;100151.59;5010709;28;20569;-83
2021/05/14 03:52:10;;;;;;;12.32;8.52;;;;;;;10.72;100.00;100140.97;5022411;28;20048;-83
2021/05/14 03:54:36;;;;;;;13.00;8.60;;;;;;;10.70;100.00;100147.41;5027438;28;20049;-81
2021/05/14 03:57:02;;;;;;;13.00;8.82;;;;;;;10.67;100.00;100143.13;5031950;28;20068;-83
2021/05/14 03:59:28;;;;;;;12.80;8.35;;;;;;;10.67;100.00;100147.63;5026642;28;20051;-82
2021/05/14 04:01:54;;;;;;;11.73;7.90;;;;;;;10.65;100.00;100145.06;5025260;28;20690;-83
2021/05/14 04:04:21;;;;;;;14.02;9.15;;;;;;;10.66;100.00;100136.03;5009641;28;20076;-83
2021/05/14 04:06:47;;;;;;;13.27;8.40;;;;;;;10.66;100.00;100143.25;5004829;28;20034;-84
2021/05/14 04:09:12;;;;;;;12.82;8.27;;;;;;;10.67;100.00;100139.59;5017627;28;20407;-83
2021/05/14 04:16:48;;;;;;;11.57;8.40;;;;;;;10.62;100.00;100149.78;5026952;28;20398;-83
2021/05/14 04:19:13;;;;;;;13.02;8.48;;;;;;;10.62;100.00;100147.97;5026065;28;20371;-83
2021/05/14 04:21:39;;;;;;;14.88;8.57;;;;;;;10.61;100.00;100153.47;5025224;28;20068;-83
2021/05/14 04:24:05;;;;;;;13.07;8.32;;;;;;;10.61;100.00;100148.09;5024812;28;20041;-82
2021/05/14 04:26:31;;;;;;;14.80;8.13;;;;;;;10.63;100.00;100156.88;5021212;28;20387;-83
2021/05/14 04:28:57;;;;;;;13.15;9.77;;;;;;;10.64;100.00;100156.75;5020068;28;20033;-82
2021/05/14 04:31:22;;;;;;;12.23;8.57;;;;;;;10.67;100.00;100155.69;5013260;28;20037;-83
2021/05/14 04:33:48;;;;;;;13.32;8.85;;;;;;;10.68;100.00;100158.25;5026290;28;20033;-83
2021/05/14 04:36:14;;;;;;;14.82;9.13;;;;;;;10.71;100.00;100155.34;5009603;28;20394;-82
2021/05/14 04:38:39;;;;;;;13.02;8.77;;;;;;;10.73;100.00;100153.41;5018510;28;20057;-82
2021/05/14 04:41:05;;;;;;;13.25;8.05;;;;;;;10.77;100.00;100154.88;5016794;28;20029;-83
2021/05/14 04:43:30;;;;;;;11.55;8.13;;;;;;;10.79;100.00;100158.31;5010151;28;20033;-83
2021/05/14 04:45:56;;;;;;;14.63;8.40;;;;;;;10.80;100.00;100159.19;5024167;28;20041;-82
2021/05/14 04:48:21;;;;;;;11.73;7.93;;;;;;;10.82;100.00;100151.84;5017489;28;20401;-83
2021/05/14 04:50:47;;;;;;;13.35;7.85;;;;;;;10.85;100.00;100155.19;5006785;28;20029;-83
2021/05/14 04:53:15;;;;;;;16.92;8.77;;;;;;;10.89;100.00;100155.81;5025892;28;20061;-83
2021/05/14 04:55:41;;;;;;;11.40;8.10;;;;;;;10.94;100.00;100159.00;5020542;28;20387;-82
2021/05/14 04:58:06;;;;;;;10.70;8.15;;;;;;;10.98;100.00;100163.19;5013961;28;20456;-82
2021/05/14 05:00:32;;;;;;;15.35;7.80;;;;;;;11.04;100.00;100161.88;5008564;28;20029;-83
2021/05/14 05:02:58;;;;;;;14.35;8.55;;;;;;;11.06;100.00;100166.13;5027732;28;20041;-83
2021/05/14 05:05:24;;;;;;;12.02;7.68;;;;;;;11.10;100.00;100164.09;5010587;28;20441;-82
2021/05/14 05:07:49;;;;;;;15.32;8.15;;;;;;;11.13;100.00;100156.66;5023865;28;20037;-83
2021/05/14 05:10:15;;;;;;;12.77;7.85;;;;;;;11.16;100.00;100166.31;5022897;28;20490;-83
2021/05/14 05:12:41;;;;;;;14.35;8.18;;;;;;;11.20;100.00;100165.97;5029881;28;20041;-83
2021/05/14 05:15:08;;;;;;;11.77;7.22;;;;;;;11.25;100.00;100171.84;5003043;28;20040;-83
2021/05/14 05:17:33;;;;;;;14.75;7.85;;;;;;;11.32;100.00;100165.03;5018816;28;20038;-83
2021/05/14 05:19:59;;;;;;;12.13;7.35;;;;;;;11.38;100.00;100168.22;5005217;28;20082;-82
2021/05/14 05:22:24;;;;;;;12.60;7.70;;;;;;;11.43;100.00;100176.78;5028644;28;20033;-83
2021/05/14 05:24:50;;;;;;;12.38;8.52;;;;;;;11.49;100.00;100173.63;5007929;28;20037;-83
2021/05/14 05:27:16;;;;;;;10.63;7.88;;;;;;;11.49;100.00;100184.38;5014349;28;20068;-82
2021/05/14 05:29:42;;;;;;;14.15;7.60;;;;;;;11.51;100.00;100185.97;5022399;28;20033;-82
2021/05/14 05:32:07;;;;;;;12.52;7.60;;;;;;;11.57;100.00;100181.97;5013199;28;20029;-83
2021/05/14 05:34:33;;;;;;;10.95;7.22;;;;;;;11.62;100.00;100185.16;5003323;28;20030;-83
2021/05/14 05:36:59;;;;;;;11.32;6.18;;;;;;;11.70;100.00;100180.03;5006707;28;20057;-83
2021/05/14 05:39:24;;;;;;;9.45;4.90;;;;;;;11.75;100.00;100186.81;5021970;28;20052;-83
2021/05/14 05:41:50;;;;;;;11.32;6.07;;;;;;;11.85;100.00;100186.09;5023979;28;20041;-83
2021/05/14 05:44:16;;;;;;;11.25;5.88;;;;;;;11.88;100.00;100197.47;5019184;28;20029;-83
2021/05/14 05:46:41;;;;;;;10.82;6.32;;;;;;;11.95;100.00;100187.94;5006402;28;20041;-83
2021/05/14 05:49:07;;;;;;;9.05;5.88;;;;;;;11.97;99.88;100196.72;5005637;28;20090;-83
2021/05/14 05:51:32;;;;;;;10.98;5.72;;;;;;;12.10;98.76;100202.00;5017230;28;20140;-82
2021/05/14 05:53:58;;;;;;;7.75;6.13;;;;;;;12.21;98.07;100203.88;5026134;28;20557;-83
2021/05/14 05:56:25;;;;;;;10.77;5.43;;;;;;;12.33;96.97;100210.97;5025183;28;20120;-83
2021/05/14 05:58:51;;;;;;;10.57;5.50;;;;;;;12.45;95.51;100212.69;5010068;28;20548;-83
2021/05/14 06:01:16;;;;;;;6.90;4.75;;;;;;;12.54;94.21;100211.91;5022036;28;20041;-83
2021/05/14 06:03:42;;;;;;;8.48;5.47;;;;;;;12.73;91.76;100211.28;5018742;28;20272;-83
2021/05/14 06:06:08;;;;;;;7.80;4.50;;;;;;;12.85;89.22;100215.69;5027878;28;20088;-84
2021/05/14 06:08:34;;;;;;;8.45;4.85;;;;;;;12.97;89.10;100214.69;5024701;28;20037;-83
2021/05/14 06:10:59;;;;;;;8.18;4.28;;;;;;;13.24;88.85;100223.22;5008864;28;20038;-82
2021/05/14 06:13:25;;;;;;;5.05;3.75;;;;;;;13.25;86.73;100219.53;5016928;28;20044;-84
2021/05/14 06:15:52;;;;;;;6.63;3.88;;;;;;;13.34;86.87;100224.16;4999838;28;20072;-83
2021/05/14 06:18:18;;;;;;;7.07;4.88;;;;;;;13.48;85.99;100223.00;5022412;28;20026;-83
2021/05/14 06:20:45;;;;;;;6.85;4.30;;;;;;;13.60;84.63;100230.06;5025557;28;20406;-81
2021/05/14 06:23:12;;;;;;;5.68;3.55;;;;;;;13.67;84.15;100231.25;5003786;28;20029;-84
2021/05/14 06:25:39;;;;;;;5.15;3.40;;;;;;;13.75;82.51;100234.16;5005201;28;20350;-84
2021/05/14 06:28:04;;;;;;;6.65;3.30;;;;;;;13.93;82.69;100233.56;5012001;28;20064;-84
2021/05/14 06:30:30;;;;;;;8.02;2.90;;;;;;;14.12;80.82;100231.84;5013167;28;20064;-82
2021/05/14 06:32:56;;;;;;;5.13;3.03;;;;;;;14.28;78.20;100236.75;5009590;28;20040;-83
2021/05/14 06:35:22;;;;;;;5.50;2.97;;;;;;;14.50;78.60;100233.91;5009019;28;20460;-83
2021/05/14 06:37:48;;;;;;;4.88;2.60;;;;;;;14.72;76.40;100232.88;5029580;28;20033;-83
2021/05/14 06:40:14;;;;;;;14.23;4.05;;;;;;;14.91;75.25;100241.03;5019217;28;20682;-83
2021/05/14 06:42:39;;;;;;;11.00;3.30;;;;;;;15.21;75.06;100232.00;5024248;28;20063;-82
2021/05/14 06:45:07;;;;;;;5.97;3.17;;;;;;;15.59;72.53;100241.16;5022545;28;20061;-84
2021/05/14 06:47:32;;;;;;;4.97;2.83;;;;;;;15.75;71.30;100233.31;5023068;28;20456;-84
2021/05/14 06:50:03;;;;;;;8.80;3.28;;;;;;;15.86;70.78;100241.28;5022723;28;20037;-84
2021/05/14 06:52:28;;;;;;;24.27;5.60;;;;;;;16.06;69.61;100244.81;5020296;28;20040;-84
2021/05/14 06:54:54;;;;;;;20.85;5.00;;;;;;;16.09;70.96;100247.25;5004189;28;20555;-84
2021/05/14 06:57:20;;;;;;;15.32;3.67;;;;;;;16.44;69.52;100249.28;5028475;28;20508;-83
2021/05/14 06:59:46;;;;;;;26.23;5.80;;;;;;;16.90;67.60;100243.88;5005771;28;20044;-84
2021/05/14 07:02:11;;;;;;;10.35;3.35;;;;;;;17.37;65.02;100254.56;5009779;28;20120;-83
2021/05/14 07:04:37;;;;;;;13.48;4.00;;;;;;;17.63;65.03;100252.84;5021753;28;20116;-84
2021/05/14 07:07:02;;;;;;;5.63;2.88;;;;;;;18.10;61.73;100255.25;5022753;28;20399;-83
2021/05/14 07:09:28;;;;;;;14.65;7.80;;;;;;;18.27;60.05;100262.50;5026503;28;20501;-84
2021/05/14 07:11:53;;;;;;;8.18;3.00;;;;;;;18.22;61.07;100255.84;5010473;28;20084;-85
2021/05/14 07:14:19;;;;;;;15.27;4.30;;;;;;;18.33;62.60;100259.16;5002559;28;20057;-84
2021/05/14 07:16:45;;;;;;;6.80;2.45;;;;;;;18.35;60.71;100257.16;5025152;28;20040;-83
2021/05/14 07:19:14;;;;;;;5.15;2.60;;;;;;;18.29;59.82;100267.78;5026513;28;20048;-84
2021/05/14 07:21:43;;;;;;;3.42;2.08;;;;;;;18.36;59.86;100258.84;5039580;28;20048;-84
2021/05/14 07:24:09;;;;;;;5.18;2.72;;;;;;;18.43;58.90;100264.50;5027465;28;20037;-85
2021/05/14 07:26:34;;;;;;;3.08;1.92;;;;;;;18.59;58.96;100264.63;5009703;28;20036;-84
2021/05/14 07:29:02;;;;;;;3.78;2.13;;;;;;;18.73;58.84;100255.88;5021997;28;20616;-83
2021/05/14 07:31:28;;;;;;;5.88;2.40;;;;;;;18.69;58.84;100268.09;5025774;28;20029;-84
2021/05/14 07:33:54;;;;;;;10.70;3.03;;;;;;;18.61;58.96;100267.19;5027222;28;20044;-84
2021/05/14 07:36:19;;;;;;;4.13;1.77;;;;;;;18.72;57.86;100272.34;5034724;28;20541;-84
2021/05/14 07:38:45;;;;;;;4.03;1.95;;;;;;;18.57;60.13;100267.53;5028056;28;20018;-84
2021/05/14 07:41:11;;;;;;;5.50;2.47;;;;;;;18.69;58.25;100272.69;5019718;28;20037;-84
2021/05/14 07:43:37;;;;;;;5.07;2.55;;;;;;;18.42;59.07;100281.81;5011494;28;20037;-84
2021/05/14 07:46:03;;;;;;;6.15;2.47;;;;;;;18.67;58.04;100277.44;5010832;28;20030;-83
2021/05/14 07:48:28;;;;;;;5.18;2.38;;;;;;;19.06;56.27;100283.25;5027883;28;20025;-85
2021/05/14 07:50:54;;;;;;;15.20;4.10;;;;;;;19.46;55.26;100279.81;5009333;28;20060;-83
2021/05/14 07:53:19;;;;;;;7.38;2.58;;;;;;;19.75;54.18;100280.22;5024345;28;20410;-84
2021/05/14 07:55:45;;;;;;;6.25;3.00;;;;;;;19.76;53.80;100277.31;5008657;28;20029;-84
2021/05/14 07:58:10;;;;;;;5.25;2.72;;;;;;;19.85;52.88;100282.78;5025525;28;20479;-84
2021/05/14 08:00:36;;;;;;;3.85;2.45;;;;;;;20.04;52.54;100283.31;5013561;28;20029;-84
2021/05/14 08:03:01;;;;;;;5.43;2.60;;;;;;;20.32;53.73;100280.22;5009966;28;20076;-85
2021/05/14 08:05:27;;;;;;;4.05;2.38;;;;;;;20.33;54.09;100280.09;5023542;28;20119;-85
2021/05/14 08:08:10;;;;;;;3.80;2.30;;;;;;;20.49;51.34;100274.59;5008868;28;20037;-84
2021/05/14 08:10:35;;;;;;;4.80;2.53;;;;;;;20.67;53.47;100277.16;5007519;28;20111;-85
2021/05/14 08:13:02;;;;;;;4.05;2.45;;;;;;;20.97;50.83;100283.69;5008852;28;20494;-84
2021/05/14 08:15:28;;;;;;;5.88;2.63;;;;;;;20.87;50.13;100275.69;5026744;28;20064;-84
2021/05/14 08:17:54;;;;;;;3.13;2.13;;;;;;;21.34;51.06;100277.59;5021704;28;20037;-85
2021/05/14 08:20:20;;;;;;;3.20;2.03;;;;;;;21.67;49.35;100279.09;5019059;28;20048;-84
2021/05/14 08:22:46;;;;;;;6.57;3.15;;;;;;;21.72;49.70;100279.44;5005777;28;20040;-84
2021/05/14 08:25:12;;;;;;;9.93;2.67;;;;;;;21.34;48.04;100274.88;5020370;28;20038;-84
2021/05/14 08:27:38;;;;;;;4.30;2.47;;;;;;;21.20;48.10;100278.34;5024220;28;20485;-84
2021/05/14 08:30:06;;;;;;;3.00;2.40;;;;;;;21.62;49.36;100283.41;5005356;28;20041;-85
2021/05/14 08:32:32;;;;;;;5.18;2.70;;;;;;;22.01;47.24;100283.34;5019639;28;20038;-85
2021/05/14 08:34:58;;;;;;;6.80;3.00;;;;;;;22.32;48.71;100286.81;5017181;28;20939;-84
2021/05/14 08:37:23;;;;;;;6.80;2.40;;;;;;;22.55;45.88;100286.75;5020217;28;20506;-84
2021/05/14 08:39:49;;;;;;;21.23;3.45;;;;;;;22.53;46.16;100292.41;5025147;28;20075;-86
2021/05/14 08:42:14;;;;;;;5.43;2.85;;;;;;;22.45;46.13;100291.66;5006971;28;20040;-85
2021/05/14 08:44:40;;;;;;;7.50;2.42;;;;;;;22.41;44.39;100284.84;5021522;28;20041;-84
2021/05/14 08:47:06;;;;;;;5.40;2.55;;;;;;;22.60;45.60;100289.78;5025164;28;20061;-85
2021/05/14 08:49:34;;;;;;;4.85;2.20;;;;;;;22.47;44.08;100293.16;5004734;28;20084;-85
2021/05/14 08:52:05;;;;;;;4.70;2.30;;;;;;;21.97;42.64;100299.22;5028353;28;20122;-85
2021/05/14 08:54:30;;;;;;;9.93;3.60;;;;;;;21.73;44.19;100291.16;5003615;28;20033;-85
2021/05/14 08:56:56;;;;;;;5.28;2.63;;;;;;;21.86;44.76;100293.31;5022294;28;20017;-86
2021/05/14 08:59:22;;;;;;;7.75;2.88;;;;;;;22.37;45.83;100283.53;5006667;28;20071;-85
2021/05/14 09:01:49;;;;;;;7.20;2.20;;;;;;;22.17;46.58;100288.66;5023201;28;20544;-85
2021/05/14 09:04:16;;;;;;;6.70;2.85;;;;;;;22.21;43.50;100290.00;5008809;28;20033;-84
2021/05/14 09:06:43;;;;;;;7.32;2.78;;;;;;;22.80;43.61;100288.25;5018475;28;20037;-86
2021/05/14 09:09:12;;;;;;;7.10;2.92;;;;;;;23.06;41.70;100290.50;5014665;28;20044;-85
2021/05/14 09:11:43;;;;;;;11.73;3.53;;;;;;;23.16;42.59;100284.72;5004575;28;20087;-85
2021/05/14 09:14:32;;;;;;;6.22;3.10;;;;;;;22.78;43.47;100286.72;5019501;28;20497;-85
2021/05/14 09:17:14;;;;;;;6.32;2.17;;;;;;;22.31;45.02;100279.66;5010643;28;20147;-85
2021/05/14 09:19:41;;;;;;;7.53;2.83;;;;;;;21.99;44.11;100290.84;5022121;28;20042;-85
2021/05/14 09:22:21;;;;;;;5.35;2.70;;;;;;;21.52;45.77;100280.91;5009050;28;20187;-85
2021/05/14 09:24:49;;;;;;;5.88;2.08;;;;;;;20.74;45.82;100283.59;5025981;28;20033;-85
2021/05/14 09:27:32;;;;;;;6.65;2.50;;;;;;;20.46;47.59;100280.41;5019979;28;20045;-85
2021/05/14 09:30:01;;;;;;;2.92;2.05;;;;;;;20.14;48.81;100281.25;5022295;28;20061;-84
2021/05/14 09:32:29;;;;;;;8.18;2.10;;;;;;;20.14;47.83;100281.25;5006652;28;20480;-84
2021/05/14 09:34:56;;;;;;;5.55;2.42;;;;;;;20.12;47.36;100283.28;4997591;28;20038;-84
2021/05/14 09:37:23;;;;;;;4.05;1.98;;;;;;;20.41;46.72;100276.50;5001288;28;20028;-84
2021/05/14 09:39:50;;;;;;;4.78;1.30;;;;;;;20.75;43.79;100276.25;5006575;28;20445;-83
2021/05/14 09:42:32;;;;;;;7.47;1.90;;;;;;;21.20;43.07;100275.63;5005148;28;20212;-85
2021/05/14 09:45:17;;;;;;;8.15;2.88;;;;;;;21.35;45.14;100277.41;5004376;28;20079;-84
2021/05/14 09:47:43;;;;;;;10.73;3.13;;;;;;;20.68;43.99;100270.66;5005107;28;20049;-84
2021/05/14 09:50:27;;;;;;;5.63;1.90;;;;;;;20.31;46.26;100278.50;5019580;28;20334;-84
2021/05/14 09:53:05;;;;;;;2.58;1.60;;;;;;;20.02;45.36;100269.00;5021230;28;20132;-84
2021/05/14 09:55:31;;;;;;;6.47;1.80;;;;;;;19.80;46.10;100275.13;5021871;28;20056;-84
2021/05/14 09:58:03;;;;;;;3.35;1.90;;;;;;;19.71;47.85;100270.69;5001921;28;20018;-83
2021/05/14 10:00:29;;;;;;;3.45;1.70;;;;;;;19.86;47.24;100271.72;5015402;28;20448;-84
2021/05/14 10:02:57;;;;;;;4.45;2.28;;;;;;;19.70;47.52;100274.41;5025410;28;20045;-84
2021/05/14 10:05:24;;;;;;;5.40;1.60;;;;;;;19.60;46.53;100271.00;5015985;28;20091;-84
2021/05/14 10:07:50;;;;;;;2.80;1.60;;;;;;;19.52;49.12;100274.56;5007576;28;20565;-84
2021/05/14 10:10:15;;;;;;;6.43;1.55;;;;;;;19.67;48.53;100277.50;5025499;28;20136;-84
2021/05/14 10:12:41;;;;;;;3.50;1.73;;;;;;;19.45;50.58;100276.22;5004467;28;20050;-84
2021/05/14 10:15:11;;;;;;;8.68;1.75;;;;;;;19.52;51.07;100273.72;5004893;28;20026;-85
2021/05/14 10:17:39;;;;;;;2.35;1.52;;;;;;;19.38;50.09;100284.19;5001329;28;20021;-84
2021/05/14 10:20:11;;;;;;;4.65;2.03;;;;;;;19.14;51.78;100270.50;5022445;28;20025;-84
2021/05/14 10:22:37;;;;;;;10.10;2.40;;;;;;;19.17;49.79;100267.47;5024852;28;20044;-85
2021/05/14 10:25:03;;;;;;;1.50;1.00;;;;;;;19.06;50.34;100262.34;5020870;28;20064;-84
2021/05/14 10:27:40;;;;;;;3.88;1.40;;;;;;;19.26;50.64;100263.75;5019000;28;20029;-85
2021/05/14 10:30:07;;;;;;;4.45;2.10;;;;;;;19.35;50.94;100256.47;5015784;28;20060;-84
2021/05/14 10:32:45;;;;;;;3.92;2.42;;;;;;;19.42;50.17;100253.94;5040215;28;20038;-85
2021/05/14 10:35:22;;;;;;;4.07;1.80;;;;;;;19.50;51.97;100254.00;5006023;28;20417;-85
2021/05/14 10:37:49;;;;;;;4.80;2.38;;;;;;;19.56;51.53;100258.75;5018474;28;20037;-85
2021/05/14 10:43:01;;;;;;;2.80;2.10;;;;;;;19.51;49.99;100252.94;5042976;28;20056;-85
2021/05/14 10:45:33;;;;;;;5.63;2.05;;;;;;;19.47;47.25;100254.31;5018823;28;20025;-85
2021/05/14 10:47:59;;;;;;;3.88;2.10;;;;;;;19.36;49.52;100248.13;5025750;28;20034;-83
2021/05/14 10:50:45;;;;;;;8.15;1.55;;;;;;;19.40;48.32;100254.94;5027393;28;20141;-85
2021/05/14 10:53:16;;;;;;;4.43;1.73;;;;;;;19.47;47.50;100248.88;5024870;28;20046;-86
2021/05/14 10:55:43;;;;;;;7.10;2.00;;;;;;;19.53;47.15;100249.03;5008535;28;20208;-84
2021/05/14 10:58:09;;;;;;;6.25;1.58;;;;;;;20.12;48.33;100239.69;5028141;28;20025;-85
2021/05/14 11:00:36;;;;;;;6.05;2.03;;;;;;;20.50;46.20;100237.28;5028590;28;20033;-84
2021/05/14 11:03:14;;;;;;;7.43;2.33;;;;;;;20.61;45.93;100247.00;5016639;28;20045;-85
2021/05/14 11:05:45;;;;;;;3.70;1.92;;;;;;;20.58;46.57;100240.00;5015716;28;20038;-84
2021/05/14 11:08:33;;;;;;;2.85;2.08;;;;;;;20.53;45.87;100234.22;5016091;28;20083;-85
2021/05/14 11:11:00;;;;;;;3.92;1.85;;;;;;;20.56;44.75;100247.50;5025669;28;20048;-86
2021/05/14 11:13:53;;;;;;;2.72;2.03;;;;;;;20.32;44.49;100250.25;5012254;28;20033;-84
2021/05/14 11:16:32;;;;;;;8.23;1.88;;;;;;;20.27;46.61;100247.19;5002155;28;20544;-84
2021/05/14 11:18:58;;;;;;;5.03;2.25;;;;;;;20.13;45.22;100246.84;4999619;28;20518;-83
2021/05/14 11:22:10;;;;;;;5.95;2.40;;;;;;;20.01;46.64;100245.50;5008059;28;20024;-84
2021/05/14 11:24:48;;;;;;;3.83;1.90;;;;;;;19.90;45.94;100251.28;4995198;28;20519;-85
2021/05/14 11:27:22;;;;;;;4.03;1.52;;;;;;;19.91;44.32;100239.38;5021209;28;20399;-85